Flinterduin — PEBT — position and weather

sailwx.info

Track history (hours):
 
Tides and Currents Weather Stations Pressure Air Temp Water Temp Dewpoint Dewpoint Depression Visibility Wind Speed Wind Dir Waves Ship Positions

Flinterduin

Last reported at 2015-Sep-02 02:20 UTC. Time now 2015-Sep-02 23:56 UTC.
Position N 38°02' E 016°30'.

Length 112 m; beam 15 m.

Type: Cargo ship. MMSI: 246484000.

Date/timePositionNaut miles runAvg speedWind from/ knotsBaromVisibWave heightAir tempDewpointWater temp
2015-Sep-02 02:20N 38°02' E 016°30'2813.1
2015-Sep-02 00:11N 37°39' E 016°11'812.9
2015-Sep-01 23:33N 37°31' E 016°05'1312.9
2015-Sep-01 22:34N 37°21' E 015°56'1313.2
2015-Sep-01 21:34N 37°10' E 015°47'1313.1
2015-Sep-01 20:33N 36°59' E 015°37'1312.9
2015-Sep-01 19:33N 36°49' E 015°28'1312.7
2015-Sep-01 18:33N 36°39' E 015°19'1312.4
2015-Sep-01 17:31N 36°32' E 015°05'1413.2
2015-Sep-01 16:29N 36°36' E 014°48'1313.4
2015-Sep-01 15:31N 36°39' E 014°32'1313.4
2015-Sep-01 14:34N 36°42' E 014°17'1313.1
2015-Sep-01 13:33N 36°45' E 014°01'1313.1
2015-Sep-01 12:32N 36°49' E 013°45'1413.1
2015-Sep-01 11:30N 36°52' E 013°28'1213.1
2015-Sep-01 10:33N 36°55' E 013°13'1313.0
2015-Sep-01 09:33N 36°58' E 012°58'1513.0
2015-Sep-01 08:23N 37°02' E 012°39'6412.9
2015-Sep-01 03:24N 37°18' E 011°22'3813.0
2015-Sep-01 00:28N 37°30' E 010°36'1212.7
2015-Aug-31 23:34N 37°33' E 010°22'1312.6
2015-Aug-31 22:33N 37°33' E 010°06'1412.7
2015-Aug-31 21:26N 37°31' E 009°48'1112.5
2015-Aug-31 20:32N 37°28' E 009°34'1211.9
2015-Aug-31 19:33N 37°25' E 009°20'1211.8
2015-Aug-31 18:32N 37°22' E 009°06'1111.3
2015-Aug-31 17:33N 37°19' E 008°52'3611.6
2015-Aug-31 14:27N 37°16' E 008°07'6612.7
2015-Aug-31 09:16N 37°16' E 006°44'2212.9
2015-Aug-31 07:33N 37°16' E 006°16'6913.0
2015-Aug-31 02:14N 37°11' E 004°50'912.8
2015-Aug-31 01:33N 37°10' E 004°39'1413.0
2015-Aug-31 00:29N 37°08' E 004°21'1213.2
2015-Aug-30 23:33N 37°07' E 004°06'1313.1
2015-Aug-30 22:33N 37°05' E 003°50'1512.9
2015-Aug-30 21:23N 37°03' E 003°31'1112.9
2015-Aug-30 20:32N 37°02' E 003°17'3912.9
2015-Aug-30 17:33N 36°57' E 002°29'10312.7
2015-Aug-30 09:28N 36°42' E 000°23'39810.7
2015-Aug-28 20:26N 36°15' W 007°51'1112.9
2015-Aug-28 19:33N 36°18' W 008°05'1312.8
2015-Aug-28 18:33N 36°22' W 008°20'1312.7
2015-Aug-28 17:33N 36°25' W 008°35'1312.6
2015-Aug-28 16:33N 36°28' W 008°50'1312.8
2015-Aug-28 15:33N 36°31' W 009°06'1312.8
2015-Aug-28 14:33N 36°37' W 009°20'1313.5
2015-Aug-28 13:33N 36°46' W 009°32'1313.1
2015-Aug-28 12:33N 36°59' W 009°36'1312.7
2015-Aug-28 11:32N 37°12' W 009°40'1212.8
2015-Aug-28 10:33N 37°24' W 009°43'1313.2
2015-Aug-28 09:33N 37°37' W 009°47'1312.5
2015-Aug-28 08:30N 37°50' W 009°51'1212.3
2015-Aug-28 07:33N 38°01' W 009°54'1313.0
2015-Aug-28 06:33N 38°14' W 009°58'1313.0
2015-Aug-28 05:33N 38°26' W 010°02'1313.3
2015-Aug-28 04:33N 38°39' W 010°06'1313.1
2015-Aug-28 03:33N 38°52' W 010°06'1313.1
2015-Aug-28 02:33N 39°06' W 010°07'1312.8
2015-Aug-28 01:33N 39°18' W 010°07'1512.4
2015-Aug-28 00:22N 39°33' W 010°07'  
2015-Aug-25 11:04N 40°03' W 009°50'713.3
2015-Aug-25 10:32N 39°56' W 009°50'1413.4
2015-Aug-25 09:32N 39°43' W 009°51'1713.5
2015-Aug-25 08:16N 39°26' W 009°51'913.3
2015-Aug-25 07:33N 39°16' W 009°51'1313.0
2015-Aug-25 06:33N 39°03' W 009°51'1312.5
2015-Aug-25 05:33N 38°51' W 009°51'1212.2
2015-Aug-25 04:33N 38°39' W 009°50'1212.1
2015-Aug-25 03:33N 38°27' W 009°46'1212.2
2015-Aug-25 02:33N 38°15' W 009°43'1211.8
2015-Aug-25 01:33N 38°03' W 009°40'1211.6
2015-Aug-25 00:33N 37°52' W 009°37'1111.3
2015-Aug-24 23:33N 37°41' W 009°33'1111.2
2015-Aug-24 22:33N 37°30' W 009°29'1111.3
2015-Aug-24 21:33N 37°19' W 009°26'1111.4
2015-Aug-24 20:33N 37°08' W 009°23'3510.3
2015-Aug-24 17:07N 36°41' W 008°55'1811.6
2015-Aug-24 15:33N 36°35' W 008°34'1212.0
2015-Aug-24 14:34N 36°31' W 008°20'3012.4
2015-Aug-24 12:07N 36°22' W 007°44'33410.3
2015-Aug-23 03:33N 37°21' W 000°53'  
Track history (hours):
 
Tides and Currents Weather Stations Pressure Air Temp Water Temp Dewpoint Dewpoint Depression Visibility Wind Speed Wind Dir Waves Ship Positions

Flinterduin

Last reported at 2015-Sep-02 02:20 UTC. Time now 2015-Sep-02 23:56 UTC.
Position N 38°02' E 016°30'.

Length 112 m; beam 15 m.

Type: Cargo ship. MMSI: 246484000.

Date/timePositionNaut miles runAvg speedWind from/ knotsBaromVisibWave heightAir tempDewpointWater temp
2015-Sep-02 02:20N 38°02' E 016°30'2813.1
2015-Sep-02 00:11N 37°39' E 016°11'812.9
2015-Sep-01 23:33N 37°31' E 016°05'1312.9
2015-Sep-01 22:34N 37°21' E 015°56'1313.2
2015-Sep-01 21:34N 37°10' E 015°47'1313.1
2015-Sep-01 20:33N 36°59' E 015°37'1312.9
2015-Sep-01 19:33N 36°49' E 015°28'1312.7
2015-Sep-01 18:33N 36°39' E 015°19'1312.4
2015-Sep-01 17:31N 36°32' E 015°05'1413.2
2015-Sep-01 16:29N 36°36' E 014°48'1313.4
2015-Sep-01 15:31N 36°39' E 014°32'1313.4
2015-Sep-01 14:34N 36°42' E 014°17'1313.1
2015-Sep-01 13:33N 36°45' E 014°01'1313.1
2015-Sep-01 12:32N 36°49' E 013°45'1413.1
2015-Sep-01 11:30N 36°52' E 013°28'1213.1
2015-Sep-01 10:33N 36°55' E 013°13'1313.0
2015-Sep-01 09:33N 36°58' E 012°58'1513.0
2015-Sep-01 08:23N 37°02' E 012°39'6412.9
2015-Sep-01 03:24N 37°18' E 011°22'3813.0
2015-Sep-01 00:28N 37°30' E 010°36'1212.7
2015-Aug-31 23:34N 37°33' E 010°22'1312.6
2015-Aug-31 22:33N 37°33' E 010°06'1412.7
2015-Aug-31 21:26N 37°31' E 009°48'1112.5
2015-Aug-31 20:32N 37°28' E 009°34'1211.9
2015-Aug-31 19:33N 37°25' E 009°20'1211.8
2015-Aug-31 18:32N 37°22' E 009°06'1111.3
2015-Aug-31 17:33N 37°19' E 008°52'3611.6
2015-Aug-31 14:27N 37°16' E 008°07'6612.7
2015-Aug-31 09:16N 37°16' E 006°44'2212.9
2015-Aug-31 07:33N 37°16' E 006°16'6913.0
2015-Aug-31 02:14N 37°11' E 004°50'912.8
2015-Aug-31 01:33N 37°10' E 004°39'1413.0
2015-Aug-31 00:29N 37°08' E 004°21'1213.2
2015-Aug-30 23:33N 37°07' E 004°06'1313.1
2015-Aug-30 22:33N 37°05' E 003°50'1512.9
2015-Aug-30 21:23N 37°03' E 003°31'1112.9
2015-Aug-30 20:32N 37°02' E 003°17'3912.9
2015-Aug-30 17:33N 36°57' E 002°29'10312.7
2015-Aug-30 09:28N 36°42' E 000°23'39810.7
2015-Aug-28 20:26N 36°15' W 007°51'1112.9
2015-Aug-28 19:33N 36°18' W 008°05'1312.8
2015-Aug-28 18:33N 36°22' W 008°20'1312.7
2015-Aug-28 17:33N 36°25' W 008°35'1312.6
2015-Aug-28 16:33N 36°28' W 008°50'1312.8
2015-Aug-28 15:33N 36°31' W 009°06'1312.8
2015-Aug-28 14:33N 36°37' W 009°20'1313.5
2015-Aug-28 13:33N 36°46' W 009°32'1313.1
2015-Aug-28 12:33N 36°59' W 009°36'1312.7
2015-Aug-28 11:32N 37°12' W 009°40'1212.8
2015-Aug-28 10:33N 37°24' W 009°43'1313.2
2015-Aug-28 09:33N 37°37' W 009°47'1312.5
2015-Aug-28 08:30N 37°50' W 009°51'1212.3
2015-Aug-28 07:33N 38°01' W 009°54'1313.0
2015-Aug-28 06:33N 38°14' W 009°58'1313.0
2015-Aug-28 05:33N 38°26' W 010°02'1313.3
2015-Aug-28 04:33N 38°39' W 010°06'1313.1
2015-Aug-28 03:33N 38°52' W 010°06'1313.1
2015-Aug-28 02:33N 39°06' W 010°07'1312.8
2015-Aug-28 01:33N 39°18' W 010°07'1512.4
2015-Aug-28 00:22N 39°33' W 010°07'  
2015-Aug-25 11:04N 40°03' W 009°50'713.3
2015-Aug-25 10:32N 39°56' W 009°50'1413.4
2015-Aug-25 09:32N 39°43' W 009°51'1713.5
2015-Aug-25 08:16N 39°26' W 009°51'913.3
2015-Aug-25 07:33N 39°16' W 009°51'1313.0
2015-Aug-25 06:33N 39°03' W 009°51'1312.5
2015-Aug-25 05:33N 38°51' W 009°51'1212.2
2015-Aug-25 04:33N 38°39' W 009°50'1212.1
2015-Aug-25 03:33N 38°27' W 009°46'1212.2
2015-Aug-25 02:33N 38°15' W 009°43'1211.8
2015-Aug-25 01:33N 38°03' W 009°40'1211.6
2015-Aug-25 00:33N 37°52' W 009°37'1111.3
2015-Aug-24 23:33N 37°41' W 009°33'1111.2
2015-Aug-24 22:33N 37°30' W 009°29'1111.3
2015-Aug-24 21:33N 37°19' W 009°26'1111.4
2015-Aug-24 20:33N 37°08' W 009°23'3510.3
2015-Aug-24 17:07N 36°41' W 008°55'1811.6
2015-Aug-24 15:33N 36°35' W 008°34'1212.0
2015-Aug-24 14:34N 36°31' W 008°20'3012.4
2015-Aug-24 12:07N 36°22' W 007°44'33410.3
2015-Aug-23 03:33N 37°21' W 000°53'  

Dump ship's entire track history